Time;durP1;ratioP1;P1;durP2;ratioP2;P2;SDS_P1;SDS_P2;PMS_P1;PMS_P2;Temp;Humidity;BMP_temperature;BMP_pressure;BME280_temperature;BME280_humidity;BME280_pressure;Samples;Min_cycle;Max_cycle;Signal;HPM_P1;HPM_P2
2023/01/28 00:00:27;;;;;;;11.88;8.55;;;;;;;;;;4953081;29;20039;-67
2023/01/28 00:02:53;;;;;;;11.63;8.40;;;;;;;;;;4953197;29;20047;-67
2023/01/28 00:05:19;;;;;;;11.45;8.70;;;;;;;;;;4952757;29;20043;-67
2023/01/28 00:07:48;;;;;;;10.70;8.88;;;;;;;;;;4953434;29;20039;-67
2023/01/28 00:10:14;;;;;;;11.00;9.02;;;;;;;;;;4968253;28;20043;-67
2023/01/28 00:12:40;;;;;;;11.63;9.60;;;;;;;;;;4971521;28;20065;-67
2023/01/28 00:15:07;;;;;;;14.18;9.43;;;;;;;;;;4972277;28;20434;-67
2023/01/28 00:17:33;;;;;;;12.00;9.40;;;;;;;;;;4972002;28;20039;-67
2023/01/28 00:19:59;;;;;;;12.25;9.30;;;;;;;;;;4971650;28;20055;-67
2023/01/28 00:22:25;;;;;;;12.40;9.15;;;;;;;;;;4972330;28;20485;-67
2023/01/28 00:24:51;;;;;;;9.60;8.45;;;;;;;;;;4972055;28;20039;-67
2023/01/28 00:27:17;;;;;;;10.88;9.05;;;;;;;;;;4953186;28;20046;-67
2023/01/28 00:29:43;;;;;;;11.82;10.20;;;;;;;;;;4952960;29;20047;-67
2023/01/28 00:32:10;;;;;;;12.73;9.77;;;;;;;;;;4952807;29;20047;-67
2023/01/28 00:34:36;;;;;;;12.10;9.60;;;;;;;;;;4952110;29;20043;-66
2023/01/28 00:37:02;;;;;;;12.80;9.57;;;;;;;;;;4935274;29;20093;-67
2023/01/28 00:39:28;;;;;;;12.77;9.63;;;;;;;;;;4952745;29;20050;-67
2023/01/28 00:41:54;;;;;;;11.43;9.05;;;;;;;;;;4952333;29;20054;-67
2023/01/28 00:44:21;;;;;;;10.52;9.43;;;;;;;;;;4952461;29;20101;-67
2023/01/28 00:46:47;;;;;;;11.82;9.73;;;;;;;;;;4952386;29;20055;-67
2023/01/28 00:49:13;;;;;;;11.50;9.55;;;;;;;;;;4952209;29;20043;-66
2023/01/28 00:51:39;;;;;;;11.40;9.55;;;;;;;;;;4952379;29;20441;-66
2023/01/28 00:54:05;;;;;;;11.45;9.77;;;;;;;;;;4934849;29;20051;-66
2023/01/28 00:56:31;;;;;;;11.10;9.85;;;;;;;;;;4952110;29;20386;-66
2023/01/28 00:58:57;;;;;;;12.15;10.45;;;;;;;;;;4952364;29;20039;-66
2023/01/28 01:01:25;;;;;;;11.48;9.38;;;;;;;;;;4952014;29;20043;-66
2023/01/28 01:03:56;;;;;;;11.70;9.25;;;;;;;;;;4952092;29;20059;-66
2023/01/28 01:06:23;;;;;;;12.02;9.52;;;;;;;;;;4951875;29;20678;-66
2023/01/28 01:08:50;;;;;;;12.65;10.18;;;;;;;;;;4956140;28;20078;-66
2023/01/28 01:11:16;;;;;;;13.15;10.25;;;;;;;;;;4971279;28;20039;-66
2023/01/28 01:13:42;;;;;;;12.40;10.55;;;;;;;;;;4970733;28;20123;-66
2023/01/28 01:16:10;;;;;;;12.98;10.90;;;;;;;;;;4970927;28;20039;-66
2023/01/28 01:18:40;;;;;;;14.38;10.32;;;;;;;;;;4971299;28;20039;-66
2023/01/28 01:21:10;;;;;;;14.38;11.52;;;;;;;;;;4970434;28;20630;-66
2023/01/28 01:23:36;;;;;;;12.48;10.25;;;;;;;;;;4970559;28;20062;-66
2023/01/28 01:26:03;;;;;;;12.65;10.40;;;;;;;;;;4962740;28;20047;-66
2023/01/28 01:28:29;;;;;;;12.63;10.20;;;;;;;;;;4934366;29;20054;-66
2023/01/28 01:31:00;;;;;;;12.68;10.05;;;;;;;;;;4951904;29;20050;-67
2023/01/28 01:33:27;;;;;;;11.45;9.88;;;;;;;;;;4951436;29;20521;-67
2023/01/28 01:35:54;;;;;;;15.00;10.63;;;;;;;;;;4951388;29;20046;-67
2023/01/28 01:38:20;;;;;;;14.77;11.40;;;;;;;;;;4951449;29;20047;-67
2023/01/28 01:40:46;;;;;;;15.32;10.88;;;;;;;;;;4951686;29;20048;-67
2023/01/28 01:43:16;;;;;;;13.73;10.70;;;;;;;;;;4950872;29;20134;-67
2023/01/28 01:45:43;;;;;;;13.15;10.15;;;;;;;;;;4951715;29;20038;-67
2023/01/28 01:48:14;;;;;;;12.27;10.32;;;;;;;;;;4951367;29;20488;-67
2023/01/28 01:50:44;;;;;;;11.60;10.15;;;;;;;;;;4951310;29;20134;-66
2023/01/28 01:53:13;;;;;;;12.30;10.25;;;;;;;;;;4950922;29;20055;-66
2023/01/28 01:55:40;;;;;;;11.93;9.95;;;;;;;;;;4951530;29;20058;-67
2023/01/28 01:58:08;;;;;;;13.52;10.07;;;;;;;;;;4950970;29;20097;-67
2023/01/28 02:00:34;;;;;;;11.43;9.93;;;;;;;;;;4951659;29;20066;-67
2023/01/28 02:03:00;;;;;;;11.57;10.27;;;;;;;;;;4950969;29;20129;-67
2023/01/28 02:05:27;;;;;;;11.63;9.55;;;;;;;;;;4951060;29;20047;-67
2023/01/28 02:07:54;;;;;;;10.73;8.88;;;;;;;;;;4951235;29;20050;-67
2023/01/28 02:10:20;;;;;;;11.88;9.00;;;;;;;;;;4950473;28;20174;-67
2023/01/28 02:12:53;;;;;;;11.20;8.95;;;;;;;;;;4970188;28;20051;-67
2023/01/28 02:15:21;;;;;;;10.35;9.35;;;;;;;;;;4970706;28;20873;-67
2023/01/28 02:17:47;;;;;;;10.40;9.30;;;;;;;;;;4970411;28;20039;-67
2023/01/28 02:20:19;;;;;;;9.90;8.90;;;;;;;;;;4970090;28;20067;-67
2023/01/28 02:23:03;;;;;;;12.35;9.32;;;;;;;;;;4970331;28;20054;-67
2023/01/28 02:25:41;;;;;;;9.85;8.85;;;;;;;;;;4966094;28;20055;-71
2023/01/28 02:28:07;;;;;;;9.98;8.88;;;;;;;;;;4951296;29;20332;-67
2023/01/28 02:30:36;;;;;;;10.80;8.63;;;;;;;;;;4951367;29;20039;-67
2023/01/28 02:33:07;;;;;;;10.63;9.52;;;;;;;;;;4950253;29;20043;-67
2023/01/28 02:35:47;;;;;;;10.73;9.63;;;;;;;;;;4954063;28;20042;-67
2023/01/28 02:38:13;;;;;;;10.75;9.65;;;;;;;;;;4954620;29;20039;-67
2023/01/28 02:43:33;;;;;;;10.95;9.50;;;;;;;;;;4954634;29;20122;-67
2023/01/28 02:48:46;;;;;;;10.82;9.73;;;;;;;;;;4954476;29;20479;-66
2023/01/28 02:51:23;;;;;;;12.07;10.18;;;;;;;;;;4954421;29;20414;-66
2023/01/28 02:54:10;;;;;;;11.75;9.75;;;;;;;;;;4954488;29;20051;-66
2023/01/28 02:56:48;;;;;;;10.32;8.98;;;;;;;;;;4940838;29;20086;-66
2023/01/28 02:59:32;;;;;;;10.00;8.95;;;;;;;;;;4954507;29;20465;-66
2023/01/28 03:02:19;;;;;;;10.20;9.10;;;;;;;;;;4954533;29;20039;-66
2023/01/28 03:05:05;;;;;;;9.38;8.38;;;;;;;;;;4940684;29;20640;-66
2023/01/28 03:07:33;;;;;;;11.00;9.57;;;;;;;;;;4954280;29;20105;-66
2023/01/28 03:10:03;;;;;;;11.32;9.77;;;;;;;;;;4967364;28;20385;-66
2023/01/28 03:38:17;;;;;;;10.90;7.72;;;;;;;;;;4953504;29;20098;-66
2023/01/28 03:40:56;;;;;;;9.98;7.95;;;;;;;;;;4953001;29;20123;-66
2023/01/28 03:43:22;;;;;;;9.88;7.90;;;;;;;;;;4953587;29;20039;-66
2023/01/28 03:45:51;;;;;;;10.88;7.93;;;;;;;;;;4952640;28;20039;-66
2023/01/28 03:48:21;;;;;;;11.75;8.38;;;;;;;;;;4952927;29;20047;-66
2023/01/28 03:50:47;;;;;;;10.15;7.25;;;;;;;;;;4953486;29;20102;-66
2023/01/28 03:53:14;;;;;;;9.70;7.38;;;;;;;;;;4935816;29;20054;-66
2023/01/28 03:55:44;;;;;;;10.45;7.70;;;;;;;;;;4935965;29;20108;-66
2023/01/28 03:58:10;;;;;;;11.60;7.47;;;;;;;;;;4953435;29;20062;-66
2023/01/28 04:00:40;;;;;;;8.15;7.07;;;;;;;;;;4953516;29;20432;-66
2023/01/28 04:03:16;;;;;;;11.40;7.22;;;;;;;;;;4952950;29;20414;-66
2023/01/28 04:05:46;;;;;;;9.88;7.93;;;;;;;;;;4953147;29;20453;-66
2023/01/28 04:08:13;;;;;;;10.63;7.72;;;;;;;;;;4953231;29;20074;-66
2023/01/28 04:10:39;;;;;;;11.85;8.27;;;;;;;;;;4971627;28;20551;-66
2023/01/28 04:13:06;;;;;;;11.57;8.45;;;;;;;;;;4972014;28;20738;-66
2023/01/28 04:15:32;;;;;;;12.43;8.73;;;;;;;;;;4972061;28;20047;-66
2023/01/28 04:17:59;;;;;;;11.18;8.55;;;;;;;;;;4971991;28;20065;-66
2023/01/28 04:20:25;;;;;;;11.98;9.20;;;;;;;;;;4972165;28;20182;-66
2023/01/28 04:22:51;;;;;;;11.27;8.60;;;;;;;;;;4972180;28;20129;-66
2023/01/28 04:25:17;;;;;;;10.43;8.63;;;;;;;;;;4969448;28;20528;-66
2023/01/28 04:27:43;;;;;;;9.05;7.80;;;;;;;;;;4952923;29;20139;-66
2023/01/28 04:30:10;;;;;;;10.65;8.27;;;;;;;;;;4952510;29;20078;-66
2023/01/28 04:32:36;;;;;;;11.10;8.80;;;;;;;;;;4952303;29;20110;-66
2023/01/28 04:35:02;;;;;;;10.57;8.40;;;;;;;;;;4952405;29;20120;-66
2023/01/28 04:37:28;;;;;;;10.68;8.60;;;;;;;;;;4952674;29;20043;-66
2023/01/28 04:39:54;;;;;;;12.45;9.10;;;;;;;;;;4934922;29;20039;-66
2023/01/28 04:42:20;;;;;;;12.90;9.40;;;;;;;;;;4952621;29;20038;-66
2023/01/28 04:44:46;;;;;;;11.00;8.55;;;;;;;;;;4952495;29;20039;-66
2023/01/28 04:47:12;;;;;;;11.25;9.18;;;;;;;;;;4951860;29;20046;-66
2023/01/28 04:49:38;;;;;;;8.80;6.63;;;;;;;;;;4952198;29;20043;-66
2023/01/28 04:52:04;;;;;;;10.80;8.40;;;;;;;;;;4952521;29;20123;-66
2023/01/28 04:54:30;;;;;;;10.68;8.65;;;;;;;;;;4951734;29;20090;-66
2023/01/28 04:56:56;;;;;;;12.05;9.00;;;;;;;;;;4952053;28;20039;-66
2023/01/28 04:59:22;;;;;;;10.30;8.35;;;;;;;;;;4952288;29;20074;-66
2023/01/28 05:01:49;;;;;;;11.73;8.82;;;;;;;;;;4951963;29;20094;-66
2023/01/28 05:04:16;;;;;;;10.90;8.68;;;;;;;;;;4951815;29;20126;-66
2023/01/28 05:06:42;;;;;;;11.90;9.68;;;;;;;;;;4952244;29;20051;-66
2023/01/28 05:09:08;;;;;;;10.85;8.82;;;;;;;;;;4958265;28;20886;-66
2023/01/28 05:11:34;;;;;;;13.27;9.48;;;;;;;;;;4971319;28;20039;-66
2023/01/28 05:14:01;;;;;;;10.20;8.52;;;;;;;;;;4970633;28;20097;-66
2023/01/28 05:16:27;;;;;;;12.55;8.57;;;;;;;;;;4953756;28;20536;-66
2023/01/28 05:18:53;;;;;;;10.40;7.97;;;;;;;;;;4971182;28;20043;-66
2023/01/28 05:21:19;;;;;;;9.90;8.05;;;;;;;;;;4971069;28;20066;-66
2023/01/28 05:23:45;;;;;;;8.85;7.00;;;;;;;;;;4970759;28;20569;-66
2023/01/28 05:26:12;;;;;;;8.15;5.72;;;;;;;;;;4961625;28;20130;-66
2023/01/28 05:28:38;;;;;;;6.60;5.53;;;;;;;;;;4951926;29;20146;-66
2023/01/28 05:31:05;;;;;;;7.95;6.90;;;;;;;;;;4951383;29;20667;-66
2023/01/28 05:33:31;;;;;;;9.20;7.15;;;;;;;;;;4951662;29;20126;-66
2023/01/28 05:35:57;;;;;;;8.95;6.75;;;;;;;;;;4951885;29;20043;-66
2023/01/28 05:38:23;;;;;;;9.20;7.53;;;;;;;;;;4951108;29;20043;-66
2023/01/28 05:40:49;;;;;;;9.68;7.90;;;;;;;;;;4951806;29;20406;-66
2023/01/28 05:43:15;;;;;;;10.35;8.00;;;;;;;;;;4951700;29;20047;-66
2023/01/28 05:45:41;;;;;;;8.63;7.03;;;;;;;;;;4951265;29;20105;-66
2023/01/28 05:48:08;;;;;;;10.20;8.30;;;;;;;;;;4951743;29;20335;-66
2023/01/28 05:50:34;;;;;;;11.02;8.23;;;;;;;;;;4951302;29;20047;-66
2023/01/28 05:53:00;;;;;;;9.43;8.10;;;;;;;;;;4951121;29;20078;-66
2023/01/28 05:55:26;;;;;;;10.02;7.90;;;;;;;;;;4951465;29;20044;-66
2023/01/28 05:57:52;;;;;;;11.70;9.23;;;;;;;;;;4951811;29;20050;-66
2023/01/28 06:00:18;;;;;;;9.98;7.90;;;;;;;;;;4951243;29;20051;-66
2023/01/28 06:02:44;;;;;;;12.05;8.02;;;;;;;;;;4951561;29;20047;-66
2023/01/28 06:05:10;;;;;;;12.65;8.38;;;;;;;;;;4950953;29;20051;-66
2023/01/28 06:07:36;;;;;;;12.23;8.30;;;;;;;;;;4951128;29;20050;-66
2023/01/28 06:10:02;;;;;;;12.68;8.82;;;;;;;;;;4967411;28;20047;-66
2023/01/28 06:12:28;;;;;;;12.20;9.30;;;;;;;;;;4974525;28;20425;-66
2023/01/28 06:14:54;;;;;;;14.00;10.27;;;;;;;;;;4956412;28;20077;-66
2023/01/28 06:17:20;;;;;;;14.93;9.98;;;;;;;;;;4974546;28;20686;-66
2023/01/28 06:19:46;;;;;;;13.00;9.90;;;;;;;;;;4957030;28;20055;-67
2023/01/28 06:22:12;;;;;;;18.02;10.77;;;;;;;;;;4956874;28;20047;-67
2023/01/28 06:24:38;;;;;;;13.65;10.38;;;;;;;;;;4974195;28;20702;-67
2023/01/28 06:27:04;;;;;;;15.25;10.63;;;;;;;;;;4957545;28;20043;-67
2023/01/28 06:29:30;;;;;;;13.27;10.35;;;;;;;;;;4955056;29;20047;-65
2023/01/28 06:31:56;;;;;;;14.98;11.15;;;;;;;;;;4954836;29;20190;-64
2023/01/28 06:34:22;;;;;;;14.00;10.93;;;;;;;;;;4954868;29;20039;-64
2023/01/28 06:36:49;;;;;;;14.70;10.68;;;;;;;;;;4954889;29;20044;-66
2023/01/28 06:39:15;;;;;;;12.18;10.07;;;;;;;;;;4954114;29;20055;-66
2023/01/28 06:41:41;;;;;;;15.45;10.38;;;;;;;;;;4954614;29;20082;-66
2023/01/28 06:44:07;;;;;;;16.52;10.23;;;;;;;;;;4954921;29;20619;-66
2023/01/28 06:46:34;;;;;;;12.98;9.85;;;;;;;;;;4954288;29;20045;-66
2023/01/28 06:48:59;;;;;;;13.07;10.02;;;;;;;;;;4954846;29;20172;-66
2023/01/28 06:51:26;;;;;;;13.90;10.05;;;;;;;;;;4954551;29;20442;-66
2023/01/28 06:53:52;;;;;;;13.18;9.60;;;;;;;;;;4954330;29;20044;-66
2023/01/28 06:56:18;;;;;;;13.57;9.90;;;;;;;;;;4954589;29;20039;-66
2023/01/28 06:58:44;;;;;;;15.95;10.90;;;;;;;;;;4954696;29;20693;-66
2023/01/28 07:01:10;;;;;;;14.18;10.10;;;;;;;;;;4954062;29;20051;-66
2023/01/28 07:03:36;;;;;;;13.30;9.55;;;;;;;;;;4954279;29;20050;-66
2023/01/28 07:06:02;;;;;;;15.23;10.43;;;;;;;;;;4920851;29;20046;-66
2023/01/28 07:08:28;;;;;;;13.65;9.93;;;;;;;;;;4955101;28;20054;-66
2023/01/28 07:10:54;;;;;;;16.13;10.68;;;;;;;;;;4973626;28;20043;-66
2023/01/28 07:13:20;;;;;;;16.65;10.27;;;;;;;;;;4972733;28;20398;-66
2023/01/28 07:15:47;;;;;;;15.00;10.48;;;;;;;;;;4973034;28;20050;-66
2023/01/28 07:18:13;;;;;;;16.67;10.75;;;;;;;;;;4973438;28;20510;-66
2023/01/28 07:20:39;;;;;;;14.60;10.38;;;;;;;;;;4971953;28;20055;-66
2023/01/28 07:23:05;;;;;;;13.73;10.35;;;;;;;;;;4972826;28;20054;-66
2023/01/28 07:25:31;;;;;;;13.60;9.50;;;;;;;;;;4973032;28;20034;-66
2023/01/28 07:27:57;;;;;;;14.20;10.43;;;;;;;;;;4973137;28;20046;-66
2023/01/28 07:30:24;;;;;;;14.02;9.88;;;;;;;;;;4972890;28;20047;-66
2023/01/28 07:32:56;;;;;;;18.42;12.07;;;;;;;;;;4955362;28;20051;-67
2023/01/28 07:35:23;;;;;;;15.10;10.77;;;;;;;;;;4972557;28;20047;-66
2023/01/28 07:37:53;;;;;;;15.52;10.52;;;;;;;;;;4972298;28;20833;-66
2023/01/28 07:40:19;;;;;;;15.45;11.35;;;;;;;;;;4973002;28;20042;-66
2023/01/28 07:42:45;;;;;;;14.80;10.82;;;;;;;;;;4972913;28;20524;-66
2023/01/28 07:45:12;;;;;;;14.45;10.90;;;;;;;;;;4972145;28;20078;-66
2023/01/28 07:47:38;;;;;;;16.90;9.90;;;;;;;;;;4972799;28;20042;-66
2023/01/28 07:50:04;;;;;;;13.88;9.63;;;;;;;;;;4972650;28;20473;-66
2023/01/28 07:52:30;;;;;;;16.48;10.45;;;;;;;;;;4954954;28;20055;-66
2023/01/28 07:54:56;;;;;;;11.88;8.60;;;;;;;;;;4972299;28;20039;-66
2023/01/28 07:57:25;;;;;;;13.63;9.75;;;;;;;;;;4972379;28;20050;-66
2023/01/28 07:59:51;;;;;;;12.68;9.25;;;;;;;;;;4971794;28;20057;-66
2023/01/28 08:02:18;;;;;;;13.93;10.23;;;;;;;;;;4972781;28;20122;-67
2023/01/28 08:04:44;;;;;;;16.17;10.63;;;;;;;;;;4972472;28;20039;-67
2023/01/28 08:07:10;;;;;;;14.27;10.20;;;;;;;;;;4972089;28;20050;-67
2023/01/28 08:09:36;;;;;;;13.60;9.25;;;;;;;;;;4972541;28;20704;-67
2023/01/28 08:12:02;;;;;;;12.10;9.15;;;;;;;;;;4970055;28;20077;-67
2023/01/28 08:14:28;;;;;;;12.43;8.73;;;;;;;;;;4952521;29;20418;-67
2023/01/28 08:16:54;;;;;;;14.50;9.68;;;;;;;;;;4953188;29;20070;-67
2023/01/28 08:19:20;;;;;;;13.68;9.48;;;;;;;;;;4935550;29;20450;-67
2023/01/28 08:21:49;;;;;;;12.52;9.05;;;;;;;;;;4952835;29;20562;-67
2023/01/28 08:24:15;;;;;;;14.57;9.82;;;;;;;;;;4953138;29;20039;-67
2023/01/28 08:26:42;;;;;;;13.00;8.93;;;;;;;;;;4966351;28;20047;-67
2023/01/28 08:29:08;;;;;;;11.10;8.18;;;;;;;;;;4971814;28;20535;-67
2023/01/28 08:31:34;;;;;;;13.10;8.57;;;;;;;;;;4954219;28;20412;-67
2023/01/28 08:34:00;;;;;;;12.93;9.60;;;;;;;;;;4954443;28;20054;-67
2023/01/28 08:36:26;;;;;;;13.15;8.60;;;;;;;;;;4971668;28;20581;-67
2023/01/28 08:38:53;;;;;;;12.68;8.32;;;;;;;;;;4972057;28;20126;-67
2023/01/28 08:41:22;;;;;;;10.95;8.07;;;;;;;;;;4971736;28;20038;-67
2023/01/28 08:43:48;;;;;;;12.52;8.80;;;;;;;;;;4971561;28;20133;-67
2023/01/28 08:46:15;;;;;;;13.85;8.40;;;;;;;;;;4971440;28;20047;-67
2023/01/28 08:48:41;;;;;;;11.15;8.18;;;;;;;;;;4954207;28;20093;-67
2023/01/28 08:51:07;;;;;;;12.32;7.93;;;;;;;;;;4953822;28;20474;-67
2023/01/28 08:53:33;;;;;;;11.75;8.07;;;;;;;;;;4971660;28;20047;-67
2023/01/28 08:55:59;;;;;;;12.70;8.10;;;;;;;;;;4971775;28;20572;-67
2023/01/28 08:58:25;;;;;;;13.52;8.63;;;;;;;;;;4971118;28;20047;-67
2023/01/28 09:00:51;;;;;;;12.20;8.27;;;;;;;;;;4971505;28;20592;-67
2023/01/28 09:03:18;;;;;;;14.25;8.27;;;;;;;;;;4953878;28;20398;-67
2023/01/28 09:05:44;;;;;;;11.25;7.65;;;;;;;;;;4970934;28;20042;-67
2023/01/28 09:08:11;;;;;;;11.38;8.38;;;;;;;;;;4971582;28;20508;-67
2023/01/28 09:10:38;;;;;;;12.13;8.52;;;;;;;;;;4952598;28;20430;-67
2023/01/28 09:13:05;;;;;;;11.77;8.25;;;;;;;;;;4962024;28;20034;-67
2023/01/28 09:15:31;;;;;;;10.23;8.05;;;;;;;;;;4971199;28;20114;-67
2023/01/28 09:17:58;;;;;;;12.50;8.90;;;;;;;;;;4971521;28;20093;-67
2023/01/28 09:20:24;;;;;;;12.05;8.75;;;;;;;;;;4970732;28;20086;-67
2023/01/28 09:22:50;;;;;;;13.95;8.48;;;;;;;;;;4953767;28;20062;-67
2023/01/28 09:25:16;;;;;;;13.65;9.68;;;;;;;;;;4969008;28;20039;-67
2023/01/28 09:27:42;;;;;;;11.93;8.55;;;;;;;;;;4951399;29;20039;-67
2023/01/28 09:30:09;;;;;;;11.65;8.70;;;;;;;;;;4951970;29;20062;-67
2023/01/28 09:32:35;;;;;;;12.32;8.95;;;;;;;;;;4934492;29;20130;-67
2023/01/28 09:35:01;;;;;;;11.80;8.27;;;;;;;;;;4951386;29;20462;-67
2023/01/28 09:37:27;;;;;;;11.60;8.07;;;;;;;;;;4934232;29;20086;-67
2023/01/28 09:39:54;;;;;;;20.67;10.57;;;;;;;;;;4951792;29;20145;-67
2023/01/28 09:42:29;;;;;;;15.68;9.55;;;;;;;;;;4951439;29;20049;-67
2023/01/28 09:45:09;;;;;;;13.55;8.70;;;;;;;;;;4950757;29;20133;-67
2023/01/28 09:47:39;;;;;;;10.93;8.38;;;;;;;;;;4934646;29;20094;-67
2023/01/28 09:50:07;;;;;;;11.90;8.63;;;;;;;;;;4951552;29;20058;-67
2023/01/28 09:52:35;;;;;;;13.20;8.90;;;;;;;;;;4951544;29;20054;-67
2023/01/28 09:55:28;;;;;;;12.60;8.55;;;;;;;;;;4951661;29;20130;-67
2023/01/28 09:57:55;;;;;;;11.85;8.20;;;;;;;;;;4921550;29;20051;-67
2023/01/28 10:00:23;;;;;;;12.23;8.90;;;;;;;;;;4951709;29;20354;-67
2023/01/28 10:03:08;;;;;;;13.75;8.88;;;;;;;;;;4951496;29;20148;-67
2023/01/28 10:05:37;;;;;;;10.60;7.95;;;;;;;;;;4951132;29;20070;-66
2023/01/28 10:08:12;;;;;;;13.13;8.27;;;;;;;;;;4951345;29;20081;-66
2023/01/28 10:10:48;;;;;;;12.43;8.73;;;;;;;;;;4970309;28;20066;-66
2023/01/28 10:13:20;;;;;;;10.85;8.48;;;;;;;;;;4970017;28;20043;-66
2023/01/28 10:15:45;;;;;;;12.35;8.25;;;;;;;;;;4970908;28;20038;-67
2023/01/28 10:18:12;;;;;;;9.70;7.43;;;;;;;;;;4970512;28;20166;-67
2023/01/28 10:20:41;;;;;;;11.55;7.88;;;;;;;;;;4970147;28;20094;-67
2023/01/28 10:23:10;;;;;;;11.48;7.57;;;;;;;;;;4970253;28;20054;-67
2023/01/28 10:25:38;;;;;;;10.15;7.70;;;;;;;;;;4965852;28;20118;-67
2023/01/28 10:28:09;;;;;;;11.18;7.68;;;;;;;;;;4950943;29;20102;-67
2023/01/28 10:30:38;;;;;;;11.18;8.13;;;;;;;;;;4951531;29;20043;-67
2023/01/28 10:33:09;;;;;;;10.63;7.90;;;;;;;;;;4950956;29;20441;-67
2023/01/28 10:35:38;;;;;;;11.07;7.80;;;;;;;;;;4950922;29;20050;-67
2023/01/28 10:38:06;;;;;;;11.30;7.65;;;;;;;;;;4950759;29;20043;-67
2023/01/28 10:40:32;;;;;;;10.35;7.43;;;;;;;;;;4951309;29;20070;-67
2023/01/28 10:42:58;;;;;;;8.27;6.70;;;;;;;;;;4950707;29;20043;-67
2023/01/28 10:45:34;;;;;;;8.50;6.45;;;;;;;;;;4951088;29;20134;-67
2023/01/28 10:48:08;;;;;;;11.82;6.30;;;;;;;;;;4933670;29;20064;-67
2023/01/28 10:50:34;;;;;;;9.75;7.03;;;;;;;;;;4951095;29;20656;-67
2023/01/28 10:53:05;;;;;;;10.52;6.55;;;;;;;;;;4950917;29;20502;-67
2023/01/28 10:55:54;;;;;;;10.43;5.93;;;;;;;;;;4952678;28;20047;-67
2023/01/28 10:58:23;;;;;;;7.50;5.47;;;;;;;;;;4944005;29;20051;-67
2023/01/28 11:00:53;;;;;;;8.30;5.70;;;;;;;;;;4954652;29;20122;-67
2023/01/28 11:03:20;;;;;;;8.68;5.90;;;;;;;;;;4954068;29;20133;-67
2023/01/28 11:05:55;;;;;;;8.20;5.32;;;;;;;;;;4954296;29;20450;-67
2023/01/28 11:08:23;;;;;;;6.97;5.05;;;;;;;;;;4954284;28;20051;-67
2023/01/28 11:10:49;;;;;;;8.30;5.47;;;;;;;;;;4973449;28;20121;-67
2023/01/28 11:13:23;;;;;;;7.68;5.10;;;;;;;;;;4973184;28;20039;-67
2023/01/28 11:16:10;;;;;;;7.65;5.07;;;;;;;;;;4973481;28;20630;-67
2023/01/28 11:18:39;;;;;;;6.35;5.03;;;;;;;;;;4972777;28;20035;-67
2023/01/28 11:21:15;;;;;;;8.50;5.88;;;;;;;;;;4973208;28;20058;-67
2023/01/28 11:23:49;;;;;;;7.93;5.57;;;;;;;;;;4973224;28;20077;-67
2023/01/28 11:26:17;;;;;;;8.80;6.28;;;;;;;;;;4963067;28;20386;-67
2023/01/28 11:28:43;;;;;;;10.43;7.18;;;;;;;;;;4953868;29;20058;-67
2023/01/28 11:31:10;;;;;;;8.93;6.95;;;;;;;;;;4953736;29;20833;-67
2023/01/28 11:33:37;;;;;;;9.52;7.30;;;;;;;;;;4953417;29;20053;-67
2023/01/28 11:36:06;;;;;;;11.27;7.70;;;;;;;;;;4953792;29;20074;-67
2023/01/28 11:38:33;;;;;;;8.57;6.75;;;;;;;;;;4936252;29;20425;-67
2023/01/28 11:41:02;;;;;;;10.23;7.60;;;;;;;;;;4936484;29;20055;-67
2023/01/28 11:43:30;;;;;;;10.30;6.95;;;;;;;;;;4953539;29;20042;-67
2023/01/28 11:46:11;;;;;;;9.43;6.45;;;;;;;;;;4953806;29;20137;-67
2023/01/28 11:48:44;;;;;;;9.63;6.57;;;;;;;;;;4953340;29;20050;-67
2023/01/28 11:51:26;;;;;;;9.93;6.90;;;;;;;;;;4953539;29;20135;-67
2023/01/28 11:53:52;;;;;;;;;;;;;;;;;;4953490;29;20117;-67
2023/01/28 11:56:31;;;;;;;11.25;7.32;;;;;;;;;;4953356;29;19922;-67
2023/01/28 11:59:05;;;;;;;11.15;8.43;;;;;;;;;;4953527;29;20043;-67
2023/01/28 12:01:47;;;;;;;12.60;9.63;;;;;;;;;;4953484;29;20453;-67
2023/01/28 12:04:20;;;;;;;14.80;9.75;;;;;;;;;;4952930;29;20050;-67
2023/01/28 12:07:12;;;;;;;12.63;8.80;;;;;;;;;;4952793;28;20054;-67
2023/01/28 12:09:43;;;;;;;16.55;10.27;;;;;;;;;;4964091;28;20034;-67
2023/01/28 12:12:12;;;;;;;17.20;9.68;;;;;;;;;;4972304;28;20042;-67
2023/01/28 12:14:57;;;;;;;17.33;10.07;;;;;;;;;;4972216;28;20050;-67
2023/01/28 12:17:29;;;;;;;14.88;9.70;;;;;;;;;;4972194;28;20130;-67
2023/01/28 12:20:04;;;;;;;18.70;10.20;;;;;;;;;;4972144;28;20043;-67
2023/01/28 12:22:39;;;;;;;17.00;10.35;;;;;;;;;;4972357;28;20047;-67
2023/01/28 12:25:08;;;;;;;16.15;10.98;;;;;;;;;;4971098;28;20031;-67
2023/01/28 12:27:39;;;;;;;16.35;10.30;;;;;;;;;;4953164;29;20067;-67
2023/01/28 12:30:05;;;;;;;17.73;11.23;;;;;;;;;;4952636;29;20053;-67
2023/01/28 12:32:48;;;;;;;17.42;11.32;;;;;;;;;;4952568;29;20038;-67
2023/01/28 12:35:31;;;;;;;22.05;11.90;;;;;;;;;;4952139;29;20058;-67
2023/01/28 12:38:01;;;;;;;24.98;12.32;;;;;;;;;;4952437;29;20082;-67
2023/01/28 12:40:36;;;;;;;20.42;12.15;;;;;;;;;;4952219;29;20058;-67
2023/01/28 12:43:09;;;;;;;22.08;12.40;;;;;;;;;;4935524;29;20522;-67
2023/01/28 12:45:35;;;;;;;;;;;;;;;;;;4953114;29;20077;-67
2023/01/28 12:48:07;;;;;;;24.00;12.02;;;;;;;;;;4952206;29;19924;-67
2023/01/28 12:50:38;;;;;;;22.85;12.25;;;;;;;;;;4952541;29;20536;-67
2023/01/28 12:53:22;;;;;;;20.23;11.70;;;;;;;;;;4952083;29;20044;-67
2023/01/28 12:55:52;;;;;;;21.52;10.63;;;;;;;;;;4952057;29;20069;-67
2023/01/28 12:58:22;;;;;;;20.23;11.32;;;;;;;;;;4935212;29;20050;-67
2023/01/28 13:00:50;;;;;;;20.95;10.30;;;;;;;;;;4952385;29;20469;-67
2023/01/28 13:03:30;;;;;;;21.98;10.57;;;;;;;;;;4951851;29;20046;-67
2023/01/28 13:06:01;;;;;;;21.50;10.30;;;;;;;;;;4952214;29;20031;-67
2023/01/28 13:08:28;;;;;;;18.38;8.73;;;;;;;;;;4953265;28;20047;-67
2023/01/28 13:10:55;;;;;;;16.17;9.30;;;;;;;;;;4971119;28;20035;-67
2023/01/28 13:13:38;;;;;;;17.02;9.05;;;;;;;;;;4971030;28;20041;-67
2023/01/28 13:16:05;;;;;;;15.13;8.45;;;;;;;;;;4971343;28;20038;-67
2023/01/28 13:18:42;;;;;;;16.77;9.73;;;;;;;;;;4970038;28;20050;-67
2023/01/28 13:21:11;;;;;;;18.92;9.55;;;;;;;;;;4971182;28;20525;-67
2023/01/28 13:23:40;;;;;;;15.90;8.98;;;;;;;;;;4971206;28;20039;-67
2023/01/28 13:26:25;;;;;;;16.50;8.63;;;;;;;;;;4962135;28;20453;-67
2023/01/28 13:28:52;;;;;;;16.50;8.40;;;;;;;;;;4951868;29;20039;-67
2023/01/28 13:31:19;;;;;;;12.50;8.13;;;;;;;;;;4951948;29;20039;-67
2023/01/28 13:34:00;;;;;;;12.60;7.15;;;;;;;;;;4934000;29;20049;-65
2023/01/28 13:36:27;;;;;;;13.13;7.60;;;;;;;;;;4951654;29;20118;-66
2023/01/28 13:39:01;;;;;;;11.50;7.30;;;;;;;;;;4951222;29;20046;-66
2023/01/28 13:41:57;;;;;;;14.15;8.15;;;;;;;;;;4951784;29;20529;-66
2023/01/28 13:44:31;;;;;;;17.45;8.20;;;;;;;;;;4934749;29;20062;-66
2023/01/28 13:47:17;;;;;;;13.50;8.38;;;;;;;;;;4951445;29;20054;-66
2023/01/28 13:49:46;;;;;;;16.45;8.35;;;;;;;;;;4912512;29;20422;-66
2023/01/28 13:52:12;;;;;;;13.77;8.23;;;;;;;;;;4951674;29;20425;-66
2023/01/28 13:54:40;;;;;;;14.32;8.50;;;;;;;;;;4951038;29;20043;-67
2023/01/28 13:57:12;;;;;;;14.82;9.27;;;;;;;;;;4951270;29;20050;-67
2023/01/28 13:59:57;;;;;;;14.50;8.30;;;;;;;;;;4951259;29;20130;-67
2023/01/28 14:02:34;;;;;;;11.30;7.57;;;;;;;;;;4951396;29;20047;-67
2023/01/28 14:05:23;;;;;;;14.02;8.30;;;;;;;;;;4951156;29;20043;-67
2023/01/28 14:08:02;;;;;;;13.20;8.55;;;;;;;;;;4941180;29;20059;-67
2023/01/28 14:10:34;;;;;;;12.45;7.88;;;;;;;;;;4968440;28;20042;-67
2023/01/28 14:13:25;;;;;;;13.57;8.63;;;;;;;;;;4970448;28;20057;-67
2023/01/28 14:16:10;;;;;;;13.18;7.80;;;;;;;;;;4970174;28;20415;-67
2023/01/28 14:18:41;;;;;;;14.57;8.48;;;;;;;;;;4970518;28;20052;-67
2023/01/28 14:21:12;;;;;;;13.82;7.88;;;;;;;;;;4970312;28;20425;-67
2023/01/28 14:23:43;;;;;;;13.88;8.45;;;;;;;;;;4970387;28;20047;-67
2023/01/28 14:26:12;;;;;;;12.65;8.02;;;;;;;;;;4961497;28;20490;-67
2023/01/28 14:28:38;;;;;;;16.20;9.25;;;;;;;;;;4951681;29;20039;-67
2023/01/28 14:31:14;;;;;;;11.65;8.00;;;;;;;;;;4953187;28;20069;-67
2023/01/28 14:33:40;;;;;;;14.40;8.80;;;;;;;;;;4937442;29;20043;-67
2023/01/28 14:36:09;;;;;;;14.32;8.40;;;;;;;;;;4954879;29;20091;-67
2023/01/28 14:38:39;;;;;;;15.65;9.25;;;;;;;;;;4954661;29;20074;-67
2023/01/28 14:41:06;;;;;;;16.52;9.60;;;;;;;;;;4954824;29;20063;-67
2023/01/28 14:43:32;;;;;;;19.45;10.30;;;;;;;;;;4954781;29;20035;-67
2023/01/28 14:46:23;;;;;;;16.48;10.55;;;;;;;;;;4954289;29;20836;-67
2023/01/28 14:48:49;;;;;;;18.98;11.15;;;;;;;;;;4954787;29;20047;-67
2023/01/28 14:51:36;;;;;;;19.45;10.38;;;;;;;;;;4954669;29;20043;-67
2023/01/28 14:54:11;;;;;;;24.35;11.43;;;;;;;;;;4954253;29;20122;-67
2023/01/28 14:56:46;;;;;;;23.67;11.50;;;;;;;;;;4954698;29;20042;-67
2023/01/28 14:59:20;;;;;;;23.90;11.95;;;;;;;;;;4954504;29;20043;-67
2023/01/28 15:01:47;;;;;;;21.83;11.93;;;;;;;;;;4954104;29;20478;-67
2023/01/28 15:04:27;;;;;;;26.27;13.52;;;;;;;;;;4954319;29;20043;-67
2023/01/28 15:06:53;;;;;;;26.90;13.65;;;;;;;;;;4954335;29;20043;-67
2023/01/28 15:09:21;;;;;;;27.75;12.50;;;;;;;;;;4962087;28;20624;-67
2023/01/28 15:11:49;;;;;;;23.23;12.57;;;;;;;;;;4973237;28;20070;-67